sensor_id;sensor_type;location;lat;lon;timestamp;P1;durP1;ratioP1;P2;durP2;ratioP2
1593;SDS011;790;47.000;16.084;2022-11-15T00:02:26;57.23;;;34.40;;
1593;SDS011;790;47.000;16.084;2022-11-15T00:04:53;59.70;;;35.10;;
1593;SDS011;790;47.000;16.084;2022-11-15T00:07:22;52.50;;;32.03;;
1593;SDS011;790;47.000;16.084;2022-11-15T00:09:49;62.97;;;34.23;;
1593;SDS011;790;47.000;16.084;2022-11-15T00:12:16;57.27;;;33.23;;
1593;SDS011;790;47.000;16.084;2022-11-15T00:14:43;60.27;;;33.33;;
1593;SDS011;790;47.000;16.084;2022-11-15T00:17:11;54.97;;;34.00;;
1593;SDS011;790;47.000;16.084;2022-11-15T00:19:38;58.40;;;34.87;;
1593;SDS011;790;47.000;16.084;2022-11-15T00:22:05;62.10;;;34.30;;
1593;SDS011;790;47.000;16.084;2022-11-15T00:24:34;64.03;;;33.80;;
1593;SDS011;790;47.000;16.084;2022-11-15T00:27:01;58.27;;;34.10;;
1593;SDS011;790;47.000;16.084;2022-11-15T00:29:28;61.23;;;33.80;;
1593;SDS011;790;47.000;16.084;2022-11-15T00:31:55;58.10;;;34.30;;
1593;SDS011;790;47.000;16.084;2022-11-15T00:34:23;60.00;;;33.80;;
1593;SDS011;790;47.000;16.084;2022-11-15T00:36:50;57.63;;;33.00;;
1593;SDS011;790;47.000;16.084;2022-11-15T00:39:17;59.87;;;33.70;;
1593;SDS011;790;47.000;16.084;2022-11-15T00:41:45;58.50;;;34.00;;
1593;SDS011;790;47.000;16.084;2022-11-15T00:44:12;62.30;;;34.47;;
1593;SDS011;790;47.000;16.084;2022-11-15T00:46:39;57.50;;;33.57;;
1593;SDS011;790;47.000;16.084;2022-11-15T00:49:06;62.93;;;34.80;;
1593;SDS011;790;47.000;16.084;2022-11-15T00:51:34;73.17;;;33.80;;
1593;SDS011;790;47.000;16.084;2022-11-15T00:54:01;55.37;;;32.13;;
1593;SDS011;790;47.000;16.084;2022-11-15T00:56:29;58.47;;;33.10;;
1593;SDS011;790;47.000;16.084;2022-11-15T00:58:57;56.00;;;31.47;;
1593;SDS011;790;47.000;16.084;2022-11-15T01:01:25;59.63;;;33.50;;
1593;SDS011;790;47.000;16.084;2022-11-15T01:03:52;68.47;;;34.30;;
1593;SDS011;790;47.000;16.084;2022-11-15T01:06:19;67.57;;;35.13;;
1593;SDS011;790;47.000;16.084;2022-11-15T01:08:46;62.80;;;33.40;;
1593;SDS011;790;47.000;16.084;2022-11-15T01:11:13;71.60;;;33.23;;
1593;SDS011;790;47.000;16.084;2022-11-15T01:13:40;62.97;;;33.37;;
1593;SDS011;790;47.000;16.084;2022-11-15T01:16:10;62.00;;;32.57;;
1593;SDS011;790;47.000;16.084;2022-11-15T01:18:39;62.53;;;33.90;;
1593;SDS011;790;47.000;16.084;2022-11-15T01:21:07;62.67;;;33.67;;
1593;SDS011;790;47.000;16.084;2022-11-15T01:23:35;79.50;;;33.03;;
1593;SDS011;790;47.000;16.084;2022-11-15T01:26:02;64.30;;;33.87;;
1593;SDS011;790;47.000;16.084;2022-11-15T01:28:31;61.87;;;33.80;;
1593;SDS011;790;47.000;16.084;2022-11-15T01:31:00;63.93;;;33.77;;
1593;SDS011;790;47.000;16.084;2022-11-15T01:33:29;66.10;;;33.70;;
1593;SDS011;790;47.000;16.084;2022-11-15T01:35:57;65.27;;;34.97;;
1593;SDS011;790;47.000;16.084;2022-11-15T01:38:24;60.63;;;33.70;;
1593;SDS011;790;47.000;16.084;2022-11-15T01:40:51;68.53;;;35.73;;
1593;SDS011;790;47.000;16.084;2022-11-15T01:43:22;64.50;;;33.37;;
1593;SDS011;790;47.000;16.084;2022-11-15T01:45:51;65.37;;;34.77;;
1593;SDS011;790;47.000;16.084;2022-11-15T01:48:21;69.83;;;34.90;;
1593;SDS011;790;47.000;16.084;2022-11-15T01:50:54;66.27;;;34.23;;
1593;SDS011;790;47.000;16.084;2022-11-15T01:53:21;64.27;;;34.50;;
1593;SDS011;790;47.000;16.084;2022-11-15T01:55:50;63.67;;;35.00;;
1593;SDS011;790;47.000;16.084;2022-11-15T01:58:18;62.30;;;34.27;;
1593;SDS011;790;47.000;16.084;2022-11-15T02:00:45;65.47;;;34.07;;
1593;SDS011;790;47.000;16.084;2022-11-15T02:03:14;72.07;;;35.87;;
1593;SDS011;790;47.000;16.084;2022-11-15T02:05:42;71.27;;;35.10;;
1593;SDS011;790;47.000;16.084;2022-11-15T02:08:11;77.10;;;35.70;;
1593;SDS011;790;47.000;16.084;2022-11-15T02:10:45;67.10;;;34.17;;
1593;SDS011;790;47.000;16.084;2022-11-15T02:13:12;67.43;;;34.23;;
1593;SDS011;790;47.000;16.084;2022-11-15T02:15:42;71.10;;;34.27;;
1593;SDS011;790;47.000;16.084;2022-11-15T02:18:18;66.60;;;34.93;;
1593;SDS011;790;47.000;16.084;2022-11-15T02:20:55;72.43;;;36.90;;
1593;SDS011;790;47.000;16.084;2022-11-15T02:29:48;63.70;;;32.83;;
1593;SDS011;790;47.000;16.084;2022-11-15T02:32:31;66.87;;;34.67;;
1593;SDS011;790;47.000;16.084;2022-11-15T02:35:10;67.77;;;34.77;;
1593;SDS011;790;47.000;16.084;2022-11-15T02:37:44;62.37;;;33.93;;
1593;SDS011;790;47.000;16.084;2022-11-15T02:40:17;66.47;;;34.63;;
1593;SDS011;790;47.000;16.084;2022-11-15T02:43:00;64.93;;;33.43;;
1593;SDS011;790;47.000;16.084;2022-11-15T02:46:06;64.83;;;34.13;;
1593;SDS011;790;47.000;16.084;2022-11-15T02:48:40;65.83;;;34.37;;
1593;SDS011;790;47.000;16.084;2022-11-15T02:51:09;67.53;;;34.23;;
1593;SDS011;790;47.000;16.084;2022-11-15T02:53:38;59.23;;;33.43;;
1593;SDS011;790;47.000;16.084;2022-11-15T02:56:07;66.67;;;33.73;;
1593;SDS011;790;47.000;16.084;2022-11-15T02:58:46;67.07;;;33.60;;
1593;SDS011;790;47.000;16.084;2022-11-15T03:01:26;66.77;;;34.47;;
1593;SDS011;790;47.000;16.084;2022-11-15T03:04:08;65.53;;;33.50;;
1593;SDS011;790;47.000;16.084;2022-11-15T03:06:49;59.13;;;31.70;;
1593;SDS011;790;47.000;16.084;2022-11-15T03:09:26;57.20;;;31.77;;
1593;SDS011;790;47.000;16.084;2022-11-15T03:11:59;64.10;;;33.07;;
1593;SDS011;790;47.000;16.084;2022-11-15T03:14:34;57.27;;;31.77;;
1593;SDS011;790;47.000;16.084;2022-11-15T03:17:05;59.50;;;32.10;;
1593;SDS011;790;47.000;16.084;2022-11-15T03:19:40;59.13;;;31.57;;
1593;SDS011;790;47.000;16.084;2022-11-15T03:22:11;58.10;;;32.53;;
1593;SDS011;790;47.000;16.084;2022-11-15T03:24:43;54.27;;;30.33;;
1593;SDS011;790;47.000;16.084;2022-11-15T03:27:12;57.27;;;31.87;;
1593;SDS011;790;47.000;16.084;2022-11-15T03:29:42;57.13;;;30.07;;
1593;SDS011;790;47.000;16.084;2022-11-15T03:32:14;56.00;;;30.70;;
1593;SDS011;790;47.000;16.084;2022-11-15T03:34:47;53.93;;;29.77;;
1593;SDS011;790;47.000;16.084;2022-11-15T03:37:18;57.67;;;30.73;;
1593;SDS011;790;47.000;16.084;2022-11-15T03:39:50;53.67;;;28.73;;
1593;SDS011;790;47.000;16.084;2022-11-15T03:42:20;54.50;;;30.83;;
1593;SDS011;790;47.000;16.084;2022-11-15T03:44:52;59.13;;;31.17;;
1593;SDS011;790;47.000;16.084;2022-11-15T03:47:27;55.67;;;29.60;;
1593;SDS011;790;47.000;16.084;2022-11-15T03:50:02;54.83;;;29.83;;
1593;SDS011;790;47.000;16.084;2022-11-15T03:52:33;54.67;;;29.90;;
1593;SDS011;790;47.000;16.084;2022-11-15T03:55:01;56.37;;;30.97;;
1593;SDS011;790;47.000;16.084;2022-11-15T03:57:30;56.57;;;30.73;;
1593;SDS011;790;47.000;16.084;2022-11-15T03:59:58;55.83;;;30.37;;
1593;SDS011;790;47.000;16.084;2022-11-15T04:02:25;51.47;;;29.10;;
1593;SDS011;790;47.000;16.084;2022-11-15T04:04:52;54.40;;;30.27;;
1593;SDS011;790;47.000;16.084;2022-11-15T04:07:20;55.47;;;30.87;;
1593;SDS011;790;47.000;16.084;2022-11-15T04:09:47;53.00;;;29.40;;
1593;SDS011;790;47.000;16.084;2022-11-15T04:12:30;59.53;;;31.10;;
1593;SDS011;790;47.000;16.084;2022-11-15T04:14:58;52.63;;;28.97;;
1593;SDS011;790;47.000;16.084;2022-11-15T04:17:36;53.27;;;28.80;;
1593;SDS011;790;47.000;16.084;2022-11-15T04:20:06;52.57;;;28.97;;
1593;SDS011;790;47.000;16.084;2022-11-15T04:22:55;55.33;;;29.33;;
1593;SDS011;790;47.000;16.084;2022-11-15T04:25:41;49.47;;;27.10;;
1593;SDS011;790;47.000;16.084;2022-11-15T04:28:09;54.67;;;29.67;;
1593;SDS011;790;47.000;16.084;2022-11-15T04:30:37;49.10;;;27.80;;
1593;SDS011;790;47.000;16.084;2022-11-15T04:33:04;46.13;;;26.30;;
1593;SDS011;790;47.000;16.084;2022-11-15T04:35:31;49.43;;;27.23;;
1593;SDS011;790;47.000;16.084;2022-11-15T04:38:00;53.07;;;26.47;;
1593;SDS011;790;47.000;16.084;2022-11-15T04:40:28;60.00;;;25.93;;
1593;SDS011;790;47.000;16.084;2022-11-15T04:42:55;50.63;;;27.43;;
1593;SDS011;790;47.000;16.084;2022-11-15T04:45:22;50.07;;;27.00;;
1593;SDS011;790;47.000;16.084;2022-11-15T04:47:49;51.53;;;27.93;;
1593;SDS011;790;47.000;16.084;2022-11-15T04:50:17;59.17;;;31.10;;
1593;SDS011;790;47.000;16.084;2022-11-15T04:52:49;66.43;;;31.03;;
1593;SDS011;790;47.000;16.084;2022-11-15T04:55:23;54.80;;;31.17;;
1593;SDS011;790;47.000;16.084;2022-11-15T04:57:56;55.10;;;29.70;;
1593;SDS011;790;47.000;16.084;2022-11-15T05:00:25;54.70;;;29.73;;
1593;SDS011;790;47.000;16.084;2022-11-15T05:02:53;61.77;;;33.57;;
1593;SDS011;790;47.000;16.084;2022-11-15T05:05:38;69.27;;;38.90;;
1593;SDS011;790;47.000;16.084;2022-11-15T05:08:05;70.07;;;34.27;;
1593;SDS011;790;47.000;16.084;2022-11-15T05:10:33;59.90;;;32.73;;
1593;SDS011;790;47.000;16.084;2022-11-15T05:13:00;70.30;;;36.77;;
1593;SDS011;790;47.000;16.084;2022-11-15T05:15:27;75.30;;;36.67;;
1593;SDS011;790;47.000;16.084;2022-11-15T05:17:57;63.30;;;33.20;;
1593;SDS011;790;47.000;16.084;2022-11-15T05:20:25;60.53;;;33.13;;
1593;SDS011;790;47.000;16.084;2022-11-15T05:22:52;60.77;;;33.73;;
1593;SDS011;790;47.000;16.084;2022-11-15T05:25:19;55.97;;;29.20;;
1593;SDS011;790;47.000;16.084;2022-11-15T05:27:48;48.13;;;29.93;;
1593;SDS011;790;47.000;16.084;2022-11-15T05:30:16;52.00;;;27.37;;
1593;SDS011;790;47.000;16.084;2022-11-15T05:32:43;48.93;;;28.23;;
1593;SDS011;790;47.000;16.084;2022-11-15T05:35:12;53.87;;;28.20;;
1593;SDS011;790;47.000;16.084;2022-11-15T05:37:41;61.23;;;29.53;;
1593;SDS011;790;47.000;16.084;2022-11-15T05:40:08;58.63;;;27.90;;
1593;SDS011;790;47.000;16.084;2022-11-15T05:42:36;84.53;;;27.63;;
1593;SDS011;790;47.000;16.084;2022-11-15T05:45:05;51.10;;;26.83;;
1593;SDS011;790;47.000;16.084;2022-11-15T05:47:35;51.47;;;27.47;;
1593;SDS011;790;47.000;16.084;2022-11-15T05:50:04;58.53;;;29.50;;
1593;SDS011;790;47.000;16.084;2022-11-15T05:52:33;60.40;;;30.27;;
1593;SDS011;790;47.000;16.084;2022-11-15T05:55:03;57.57;;;29.43;;
1593;SDS011;790;47.000;16.084;2022-11-15T05:57:33;69.43;;;30.20;;
1593;SDS011;790;47.000;16.084;2022-11-15T06:00:00;56.83;;;30.60;;
1593;SDS011;790;47.000;16.084;2022-11-15T06:02:30;53.07;;;28.80;;
1593;SDS011;790;47.000;16.084;2022-11-15T06:04:57;69.27;;;32.43;;
1593;SDS011;790;47.000;16.084;2022-11-15T06:07:24;69.63;;;32.67;;
1593;SDS011;790;47.000;16.084;2022-11-15T06:09:52;58.57;;;30.77;;
1593;SDS011;790;47.000;16.084;2022-11-15T06:12:19;64.13;;;29.80;;
1593;SDS011;790;47.000;16.084;2022-11-15T06:14:46;65.30;;;28.63;;
1593;SDS011;790;47.000;16.084;2022-11-15T06:17:13;54.30;;;28.80;;
1593;SDS011;790;47.000;16.084;2022-11-15T06:19:41;62.23;;;29.03;;
1593;SDS011;790;47.000;16.084;2022-11-15T06:22:08;54.40;;;28.40;;
1593;SDS011;790;47.000;16.084;2022-11-15T06:24:35;52.40;;;28.50;;
1593;SDS011;790;47.000;16.084;2022-11-15T06:27:02;53.67;;;28.67;;
1593;SDS011;790;47.000;16.084;2022-11-15T06:29:29;61.77;;;29.00;;
1593;SDS011;790;47.000;16.084;2022-11-15T06:31:56;53.33;;;28.93;;
1593;SDS011;790;47.000;16.084;2022-11-15T06:34:23;57.53;;;29.17;;
1593;SDS011;790;47.000;16.084;2022-11-15T06:36:52;57.23;;;30.30;;
1593;SDS011;790;47.000;16.084;2022-11-15T06:39:19;53.50;;;29.47;;
1593;SDS011;790;47.000;16.084;2022-11-15T06:41:46;112.87;;;33.27;;
1593;SDS011;790;47.000;16.084;2022-11-15T06:44:13;60.77;;;30.13;;
1593;SDS011;790;47.000;16.084;2022-11-15T06:46:40;58.43;;;31.03;;
1593;SDS011;790;47.000;16.084;2022-11-15T06:49:08;72.50;;;31.87;;
1593;SDS011;790;47.000;16.084;2022-11-15T06:51:35;62.63;;;30.00;;
1593;SDS011;790;47.000;16.084;2022-11-15T06:54:03;54.50;;;29.77;;
1593;SDS011;790;47.000;16.084;2022-11-15T06:56:31;55.30;;;30.30;;
1593;SDS011;790;47.000;16.084;2022-11-15T06:58:59;70.97;;;31.30;;
1593;SDS011;790;47.000;16.084;2022-11-15T07:01:27;56.20;;;29.43;;
1593;SDS011;790;47.000;16.084;2022-11-15T07:03:54;49.37;;;28.57;;
1593;SDS011;790;47.000;16.084;2022-11-15T07:06:21;72.23;;;29.30;;
1593;SDS011;790;47.000;16.084;2022-11-15T07:08:48;51.57;;;29.40;;
1593;SDS011;790;47.000;16.084;2022-11-15T07:11:17;58.23;;;30.20;;
1593;SDS011;790;47.000;16.084;2022-11-15T07:13:44;55.83;;;29.97;;
1593;SDS011;790;47.000;16.084;2022-11-15T07:16:12;52.77;;;30.73;;
1593;SDS011;790;47.000;16.084;2022-11-15T07:18:39;47.77;;;28.47;;
1593;SDS011;790;47.000;16.084;2022-11-15T07:21:07;50.67;;;29.03;;
1593;SDS011;790;47.000;16.084;2022-11-15T07:23:36;55.63;;;28.50;;
1593;SDS011;790;47.000;16.084;2022-11-15T07:26:07;50.97;;;27.67;;
1593;SDS011;790;47.000;16.084;2022-11-15T07:28:36;46.30;;;27.57;;
1593;SDS011;790;47.000;16.084;2022-11-15T07:31:04;45.30;;;27.37;;
1593;SDS011;790;47.000;16.084;2022-11-15T07:33:32;45.50;;;27.67;;
1593;SDS011;790;47.000;16.084;2022-11-15T07:35:59;45.77;;;26.70;;
1593;SDS011;790;47.000;16.084;2022-11-15T07:38:28;44.37;;;26.87;;
1593;SDS011;790;47.000;16.084;2022-11-15T07:40:55;43.20;;;26.17;;
1593;SDS011;790;47.000;16.084;2022-11-15T07:43:23;46.20;;;25.87;;
1593;SDS011;790;47.000;16.084;2022-11-15T07:45:54;46.73;;;26.50;;
1593;SDS011;790;47.000;16.084;2022-11-15T07:48:21;42.47;;;24.83;;
1593;SDS011;790;47.000;16.084;2022-11-15T07:50:49;45.43;;;26.53;;
1593;SDS011;790;47.000;16.084;2022-11-15T07:53:16;46.60;;;28.90;;
1593;SDS011;790;47.000;16.084;2022-11-15T07:55:43;42.37;;;25.63;;
1593;SDS011;790;47.000;16.084;2022-11-15T07:58:11;47.23;;;26.63;;
1593;SDS011;790;47.000;16.084;2022-11-15T08:00:38;47.00;;;26.43;;
1593;SDS011;790;47.000;16.084;2022-11-15T08:03:08;49.93;;;27.43;;
1593;SDS011;790;47.000;16.084;2022-11-15T08:05:36;50.60;;;27.83;;
1593;SDS011;790;47.000;16.084;2022-11-15T08:08:04;52.43;;;28.77;;
1593;SDS011;790;47.000;16.084;2022-11-15T08:10:32;46.40;;;26.07;;
1593;SDS011;790;47.000;16.084;2022-11-15T08:13:00;47.37;;;26.90;;
1593;SDS011;790;47.000;16.084;2022-11-15T08:15:28;53.43;;;27.17;;
1593;SDS011;790;47.000;16.084;2022-11-15T08:17:56;49.63;;;28.73;;
1593;SDS011;790;47.000;16.084;2022-11-15T08:20:27;45.93;;;26.60;;
1593;SDS011;790;47.000;16.084;2022-11-15T08:22:57;49.03;;;27.90;;
1593;SDS011;790;47.000;16.084;2022-11-15T08:25:24;54.87;;;29.67;;
1593;SDS011;790;47.000;16.084;2022-11-15T08:27:52;62.93;;;30.73;;
1593;SDS011;790;47.000;16.084;2022-11-15T08:30:20;58.30;;;29.50;;
1593;SDS011;790;47.000;16.084;2022-11-15T08:32:50;49.80;;;28.53;;
1593;SDS011;790;47.000;16.084;2022-11-15T08:35:18;56.97;;;28.93;;
1593;SDS011;790;47.000;16.084;2022-11-15T08:37:47;63.03;;;31.10;;
1593;SDS011;790;47.000;16.084;2022-11-15T08:40:15;55.10;;;29.90;;
1593;SDS011;790;47.000;16.084;2022-11-15T08:42:45;56.13;;;30.57;;
1593;SDS011;790;47.000;16.084;2022-11-15T08:45:13;58.67;;;30.37;;
1593;SDS011;790;47.000;16.084;2022-11-15T08:47:40;53.60;;;29.07;;
1593;SDS011;790;47.000;16.084;2022-11-15T08:50:09;56.13;;;30.13;;
1593;SDS011;790;47.000;16.084;2022-11-15T08:52:36;50.90;;;28.83;;
1593;SDS011;790;47.000;16.084;2022-11-15T08:55:06;55.43;;;30.70;;
1593;SDS011;790;47.000;16.084;2022-11-15T08:57:33;53.83;;;31.10;;
1593;SDS011;790;47.000;16.084;2022-11-15T09:00:00;47.77;;;28.20;;
1593;SDS011;790;47.000;16.084;2022-11-15T09:02:28;48.30;;;28.80;;
1593;SDS011;790;47.000;16.084;2022-11-15T09:04:55;47.30;;;28.10;;
1593;SDS011;790;47.000;16.084;2022-11-15T09:07:22;55.90;;;30.17;;
1593;SDS011;790;47.000;16.084;2022-11-15T09:09:49;54.50;;;29.87;;
1593;SDS011;790;47.000;16.084;2022-11-15T09:12:17;47.13;;;28.70;;
1593;SDS011;790;47.000;16.084;2022-11-15T09:14:44;53.27;;;29.77;;
1593;SDS011;790;47.000;16.084;2022-11-15T09:17:11;50.67;;;29.37;;
1593;SDS011;790;47.000;16.084;2022-11-15T09:19:39;49.53;;;29.10;;
1593;SDS011;790;47.000;16.084;2022-11-15T09:22:08;49.30;;;29.37;;
1593;SDS011;790;47.000;16.084;2022-11-15T09:24:35;46.73;;;27.33;;
1593;SDS011;790;47.000;16.084;2022-11-15T09:27:02;43.50;;;27.03;;
1593;SDS011;790;47.000;16.084;2022-11-15T09:29:31;49.10;;;29.03;;
1593;SDS011;790;47.000;16.084;2022-11-15T09:31:58;51.23;;;28.97;;
1593;SDS011;790;47.000;16.084;2022-11-15T09:34:25;45.67;;;28.37;;
1593;SDS011;790;47.000;16.084;2022-11-15T09:36:52;49.33;;;28.67;;
1593;SDS011;790;47.000;16.084;2022-11-15T09:39:25;50.27;;;29.50;;
1593;SDS011;790;47.000;16.084;2022-11-15T09:41:56;47.87;;;29.57;;
1593;SDS011;790;47.000;16.084;2022-11-15T09:44:53;50.17;;;30.37;;
1593;SDS011;790;47.000;16.084;2022-11-15T09:47:33;51.47;;;29.83;;
1593;SDS011;790;47.000;16.084;2022-11-15T09:50:31;49.00;;;29.70;;
1593;SDS011;790;47.000;16.084;2022-11-15T09:53:03;42.57;;;26.40;;
1593;SDS011;790;47.000;16.084;2022-11-15T09:55:32;48.07;;;28.83;;
1593;SDS011;790;47.000;16.084;2022-11-15T09:58:09;48.93;;;29.40;;
1593;SDS011;790;47.000;16.084;2022-11-15T10:00:47;47.90;;;28.43;;
1593;SDS011;790;47.000;16.084;2022-11-15T10:03:19;46.43;;;29.23;;
1593;SDS011;790;47.000;16.084;2022-11-15T10:05:52;43.33;;;27.40;;
1593;SDS011;790;47.000;16.084;2022-11-15T10:08:35;41.73;;;27.07;;
1593;SDS011;790;47.000;16.084;2022-11-15T10:11:14;39.67;;;25.00;;
1593;SDS011;790;47.000;16.084;2022-11-15T10:13:45;36.90;;;25.43;;
1593;SDS011;790;47.000;16.084;2022-11-15T10:16:20;39.87;;;25.60;;
1593;SDS011;790;47.000;16.084;2022-11-15T10:18:59;40.77;;;26.23;;
1593;SDS011;790;47.000;16.084;2022-11-15T10:21:35;37.57;;;25.07;;
1593;SDS011;790;47.000;16.084;2022-11-15T10:24:17;38.67;;;25.00;;
1593;SDS011;790;47.000;16.084;2022-11-15T10:26:46;40.33;;;26.07;;
1593;SDS011;790;47.000;16.084;2022-11-15T10:31:48;41.40;;;27.40;;
1593;SDS011;790;47.000;16.084;2022-11-15T10:34:16;43.10;;;27.20;;
1593;SDS011;790;47.000;16.084;2022-11-15T10:36:45;42.27;;;27.43;;
1593;SDS011;790;47.000;16.084;2022-11-15T10:39:13;39.73;;;26.13;;
1593;SDS011;790;47.000;16.084;2022-11-15T10:41:41;40.33;;;26.47;;
1593;SDS011;790;47.000;16.084;2022-11-15T10:44:11;39.50;;;26.47;;
1593;SDS011;790;47.000;16.084;2022-11-15T10:47:23;40.97;;;26.77;;
1593;SDS011;790;47.000;16.084;2022-11-15T10:49:59;39.13;;;26.47;;
1593;SDS011;790;47.000;16.084;2022-11-15T10:52:28;37.43;;;25.43;;
1593;SDS011;790;47.000;16.084;2022-11-15T10:55:01;37.43;;;26.67;;
1593;SDS011;790;47.000;16.084;2022-11-15T10:57:33;40.97;;;27.40;;
1593;SDS011;790;47.000;16.084;2022-11-15T11:00:05;37.80;;;26.43;;
1593;SDS011;790;47.000;16.084;2022-11-15T11:02:36;40.90;;;26.53;;
1593;SDS011;790;47.000;16.084;2022-11-15T11:05:05;42.73;;;27.63;;
1593;SDS011;790;47.000;16.084;2022-11-15T11:07:55;38.23;;;26.23;;
1593;SDS011;790;47.000;16.084;2022-11-15T11:10:23;36.13;;;25.30;;
1593;SDS011;790;47.000;16.084;2022-11-15T11:12:50;35.90;;;24.60;;
1593;SDS011;790;47.000;16.084;2022-11-15T11:15:18;34.90;;;23.03;;
1593;SDS011;790;47.000;16.084;2022-11-15T11:17:51;35.03;;;23.13;;
1593;SDS011;790;47.000;16.084;2022-11-15T11:20:36;32.07;;;23.43;;
1593;SDS011;790;47.000;16.084;2022-11-15T11:23:19;36.57;;;24.70;;
1593;SDS011;790;47.000;16.084;2022-11-15T11:26:01;33.47;;;23.03;;
1593;SDS011;790;47.000;16.084;2022-11-15T11:28:39;33.17;;;23.03;;
1593;SDS011;790;47.000;16.084;2022-11-15T11:31:20;32.70;;;22.10;;
1593;SDS011;790;47.000;16.084;2022-11-15T11:33:57;34.30;;;23.13;;
1593;SDS011;790;47.000;16.084;2022-11-15T11:36:34;31.33;;;22.03;;
1593;SDS011;790;47.000;16.084;2022-11-15T11:39:11;39.17;;;26.37;;
1593;SDS011;790;47.000;16.084;2022-11-15T11:41:50;34.57;;;24.63;;
1593;SDS011;790;47.000;16.084;2022-11-15T11:44:27;42.87;;;27.37;;
1593;SDS011;790;47.000;16.084;2022-11-15T11:47:08;40.13;;;26.07;;
1593;SDS011;790;47.000;16.084;2022-11-15T11:49:41;43.80;;;28.77;;
1593;SDS011;790;47.000;16.084;2022-11-15T11:52:13;44.27;;;28.77;;
1593;SDS011;790;47.000;16.084;2022-11-15T11:54:46;44.47;;;27.20;;
1593;SDS011;790;47.000;16.084;2022-11-15T11:57:25;39.10;;;25.47;;
1593;SDS011;790;47.000;16.084;2022-11-15T12:00:01;39.30;;;26.63;;
1593;SDS011;790;47.000;16.084;2022-11-15T12:02:31;40.93;;;26.17;;
1593;SDS011;790;47.000;16.084;2022-11-15T12:05:07;43.10;;;29.73;;
1593;SDS011;790;47.000;16.084;2022-11-15T12:07:39;35.27;;;24.07;;
1593;SDS011;790;47.000;16.084;2022-11-15T12:10:12;35.60;;;24.80;;
1593;SDS011;790;47.000;16.084;2022-11-15T12:12:49;37.13;;;24.53;;
1593;SDS011;790;47.000;16.084;2022-11-15T12:15:22;36.80;;;25.33;;
1593;SDS011;790;47.000;16.084;2022-11-15T12:17:58;31.87;;;22.63;;
1593;SDS011;790;47.000;16.084;2022-11-15T12:20:30;30.40;;;22.63;;
1593;SDS011;790;47.000;16.084;2022-11-15T12:23:04;32.83;;;22.50;;
1593;SDS011;790;47.000;16.084;2022-11-15T12:25:40;32.37;;;20.97;;
1593;SDS011;790;47.000;16.084;2022-11-15T12:28:19;28.97;;;19.93;;
1593;SDS011;790;47.000;16.084;2022-11-15T12:30:55;30.37;;;22.50;;
1593;SDS011;790;47.000;16.084;2022-11-15T12:33:30;28.93;;;20.97;;
1593;SDS011;790;47.000;16.084;2022-11-15T12:36:02;32.80;;;22.07;;
1593;SDS011;790;47.000;16.084;2022-11-15T12:38:50;30.23;;;21.90;;
1593;SDS011;790;47.000;16.084;2022-11-15T12:41:24;32.57;;;22.07;;
1593;SDS011;790;47.000;16.084;2022-11-15T12:43:54;31.53;;;22.27;;
1593;SDS011;790;47.000;16.084;2022-11-15T12:49:45;33.80;;;22.10;;
1593;SDS011;790;47.000;16.084;2022-11-15T12:52:16;29.20;;;20.37;;
1593;SDS011;790;47.000;16.084;2022-11-15T12:54:53;31.20;;;21.57;;
1593;SDS011;790;47.000;16.084;2022-11-15T12:57:33;34.43;;;21.17;;
1593;SDS011;790;47.000;16.084;2022-11-15T13:03:24;31.57;;;20.17;;
1593;SDS011;790;47.000;16.084;2022-11-15T13:06:01;31.23;;;20.47;;
1593;SDS011;790;47.000;16.084;2022-11-15T13:08:42;32.23;;;20.37;;
1593;SDS011;790;47.000;16.084;2022-11-15T13:17:28;33.57;;;20.63;;
1593;SDS011;790;47.000;16.084;2022-11-15T13:20:09;34.67;;;21.20;;
1593;SDS011;790;47.000;16.084;2022-11-15T13:22:50;35.10;;;21.80;;
1593;SDS011;790;47.000;16.084;2022-11-15T13:28:34;34.90;;;21.87;;
1593;SDS011;790;47.000;16.084;2022-11-15T13:31:13;37.07;;;21.80;;
1593;SDS011;790;47.000;16.084;2022-11-15T13:33:49;36.70;;;21.23;;
1593;SDS011;790;47.000;16.084;2022-11-15T13:38:56;33.67;;;20.53;;
1593;SDS011;790;47.000;16.084;2022-11-15T13:41:27;34.43;;;20.63;;
1593;SDS011;790;47.000;16.084;2022-11-15T13:43:56;34.93;;;21.33;;
1593;SDS011;790;47.000;16.084;2022-11-15T13:46:30;34.23;;;20.23;;
1593;SDS011;790;47.000;16.084;2022-11-15T13:48:59;33.53;;;21.07;;
1593;SDS011;790;47.000;16.084;2022-11-15T13:51:31;39.20;;;23.77;;
1593;SDS011;790;47.000;16.084;2022-11-15T13:54:08;40.83;;;23.73;;
1593;SDS011;790;47.000;16.084;2022-11-15T13:56:44;37.37;;;21.57;;
1593;SDS011;790;47.000;16.084;2022-11-15T14:01:49;40.80;;;23.87;;
1593;SDS011;790;47.000;16.084;2022-11-15T14:04:18;35.40;;;23.07;;
1593;SDS011;790;47.000;16.084;2022-11-15T14:06:48;40.23;;;24.07;;
1593;SDS011;790;47.000;16.084;2022-11-15T14:14:58;40.20;;;23.53;;
1593;SDS011;790;47.000;16.084;2022-11-15T14:17:37;42.40;;;23.90;;
1593;SDS011;790;47.000;16.084;2022-11-15T14:23:01;42.43;;;25.20;;
1593;SDS011;790;47.000;16.084;2022-11-15T14:28:28;44.87;;;25.90;;
1593;SDS011;790;47.000;16.084;2022-11-15T14:30:58;45.63;;;25.47;;
1593;SDS011;790;47.000;16.084;2022-11-15T14:33:28;43.33;;;26.97;;
1593;SDS011;790;47.000;16.084;2022-11-15T14:36:02;43.97;;;26.07;;
1593;SDS011;790;47.000;16.084;2022-11-15T14:38:30;49.73;;;28.20;;
1593;SDS011;790;47.000;16.084;2022-11-15T14:40:58;48.43;;;26.70;;
1593;SDS011;790;47.000;16.084;2022-11-15T14:43:27;49.60;;;27.53;;
1593;SDS011;790;47.000;16.084;2022-11-15T14:45:54;48.50;;;27.40;;
1593;SDS011;790;47.000;16.084;2022-11-15T14:48:21;47.53;;;27.40;;
1593;SDS011;790;47.000;16.084;2022-11-15T14:50:49;49.17;;;26.77;;
1593;SDS011;790;47.000;16.084;2022-11-15T14:53:16;45.80;;;26.83;;
1593;SDS011;790;47.000;16.084;2022-11-15T14:55:45;53.13;;;28.00;;
1593;SDS011;790;47.000;16.084;2022-11-15T14:58:12;51.97;;;30.03;;
1593;SDS011;790;47.000;16.084;2022-11-15T15:00:41;48.77;;;27.97;;
1593;SDS011;790;47.000;16.084;2022-11-15T15:03:08;50.30;;;27.77;;
1593;SDS011;790;47.000;16.084;2022-11-15T15:05:36;49.83;;;27.90;;
1593;SDS011;790;47.000;16.084;2022-11-15T15:08:04;57.83;;;33.03;;
1593;SDS011;790;47.000;16.084;2022-11-15T15:10:32;57.17;;;31.70;;
1593;SDS011;790;47.000;16.084;2022-11-15T15:13:01;57.43;;;33.00;;
1593;SDS011;790;47.000;16.084;2022-11-15T15:15:31;61.53;;;33.47;;
1593;SDS011;790;47.000;16.084;2022-11-15T15:18:01;70.43;;;41.03;;
1593;SDS011;790;47.000;16.084;2022-11-15T15:20:29;54.30;;;32.57;;
1593;SDS011;790;47.000;16.084;2022-11-15T15:22:56;63.03;;;35.00;;
1593;SDS011;790;47.000;16.084;2022-11-15T15:25:26;61.97;;;32.30;;
1593;SDS011;790;47.000;16.084;2022-11-15T15:27:55;68.37;;;36.30;;
1593;SDS011;790;47.000;16.084;2022-11-15T15:30:23;65.17;;;35.23;;
1593;SDS011;790;47.000;16.084;2022-11-15T15:32:50;67.07;;;35.03;;
1593;SDS011;790;47.000;16.084;2022-11-15T15:35:20;60.87;;;32.83;;
1593;SDS011;790;47.000;16.084;2022-11-15T15:37:48;65.37;;;34.07;;
1593;SDS011;790;47.000;16.084;2022-11-15T15:40:17;64.57;;;34.27;;
1593;SDS011;790;47.000;16.084;2022-11-15T15:42:45;68.70;;;35.97;;
1593;SDS011;790;47.000;16.084;2022-11-15T15:45:13;65.03;;;34.53;;
1593;SDS011;790;47.000;16.084;2022-11-15T15:47:41;64.93;;;34.20;;
1593;SDS011;790;47.000;16.084;2022-11-15T15:50:12;66.93;;;34.73;;
1593;SDS011;790;47.000;16.084;2022-11-15T15:52:49;84.60;;;39.27;;